sensor_id;sensor_type;location;lat;lon;timestamp;P1;durP1;ratioP1;P2;durP2;ratioP2
73382;SDS011;61600;48.126;11.542;2023-07-22T00:01:01;3.65;;;2.15;;
73382;SDS011;61600;48.126;11.542;2023-07-22T00:03:27;4.10;;;2.28;;
73382;SDS011;61600;48.126;11.542;2023-07-22T00:06:07;7.57;;;2.58;;
73382;SDS011;61600;48.126;11.542;2023-07-22T00:08:37;7.35;;;2.75;;
73382;SDS011;61600;48.126;11.542;2023-07-22T00:11:04;4.57;;;2.72;;
73382;SDS011;61600;48.126;11.542;2023-07-22T00:13:30;4.97;;;2.30;;
73382;SDS011;61600;48.126;11.542;2023-07-22T00:15:56;5.32;;;2.85;;
73382;SDS011;61600;48.126;11.542;2023-07-22T00:18:24;10.77;;;2.63;;
73382;SDS011;61600;48.126;11.542;2023-07-22T00:20:52;8.40;;;2.78;;
73382;SDS011;61600;48.126;11.542;2023-07-22T00:23:18;6.78;;;3.90;;
73382;SDS011;61600;48.126;11.542;2023-07-22T00:25:45;4.43;;;2.40;;
73382;SDS011;61600;48.126;11.542;2023-07-22T00:28:14;5.15;;;2.10;;
73382;SDS011;61600;48.126;11.542;2023-07-22T00:30:40;4.90;;;2.50;;
73382;SDS011;61600;48.126;11.542;2023-07-22T00:33:07;6.35;;;2.00;;
73382;SDS011;61600;48.126;11.542;2023-07-22T00:35:33;4.43;;;2.50;;
73382;SDS011;61600;48.126;11.542;2023-07-22T00:37:59;5.60;;;2.60;;
73382;SDS011;61600;48.126;11.542;2023-07-22T00:42:51;4.68;;;2.17;;
73382;SDS011;61600;48.126;11.542;2023-07-22T00:45:16;5.93;;;2.25;;
73382;SDS011;61600;48.126;11.542;2023-07-22T00:47:43;4.75;;;2.40;;
73382;SDS011;61600;48.126;11.542;2023-07-22T00:50:11;4.38;;;2.40;;
73382;SDS011;61600;48.126;11.542;2023-07-22T00:52:37;4.20;;;2.58;;
73382;SDS011;61600;48.126;11.542;2023-07-22T00:55:04;6.07;;;3.10;;
73382;SDS011;61600;48.126;11.542;2023-07-22T00:57:30;4.97;;;3.00;;
73382;SDS011;61600;48.126;11.542;2023-07-22T00:59:56;5.00;;;2.17;;
73382;SDS011;61600;48.126;11.542;2023-07-22T01:02:22;5.10;;;2.38;;
73382;SDS011;61600;48.126;11.542;2023-07-22T01:04:49;5.90;;;2.65;;
73382;SDS011;61600;48.126;11.542;2023-07-22T01:07:15;4.68;;;3.00;;
73382;SDS011;61600;48.126;11.542;2023-07-22T01:09:41;5.07;;;2.40;;
73382;SDS011;61600;48.126;11.542;2023-07-22T01:12:08;4.00;;;2.47;;
73382;SDS011;61600;48.126;11.542;2023-07-22T01:14:38;4.95;;;2.42;;
73382;SDS011;61600;48.126;11.542;2023-07-22T01:17:07;4.90;;;2.63;;
73382;SDS011;61600;48.126;11.542;2023-07-22T01:19:34;4.53;;;2.47;;
73382;SDS011;61600;48.126;11.542;2023-07-22T01:22:00;4.32;;;2.47;;
73382;SDS011;61600;48.126;11.542;2023-07-22T01:24:31;5.15;;;2.78;;
73382;SDS011;61600;48.126;11.542;2023-07-22T01:26:57;5.38;;;2.55;;
73382;SDS011;61600;48.126;11.542;2023-07-22T01:29:24;6.35;;;3.10;;
73382;SDS011;61600;48.126;11.542;2023-07-22T01:31:51;3.63;;;2.30;;
73382;SDS011;61600;48.126;11.542;2023-07-22T01:34:19;4.43;;;2.42;;
73382;SDS011;61600;48.126;11.542;2023-07-22T01:39:13;6.70;;;3.50;;
73382;SDS011;61600;48.126;11.542;2023-07-22T01:41:39;12.48;;;4.40;;
73382;SDS011;61600;48.126;11.542;2023-07-22T01:44:05;10.73;;;4.50;;
73382;SDS011;61600;48.126;11.542;2023-07-22T01:46:31;9.05;;;4.13;;
73382;SDS011;61600;48.126;11.542;2023-07-22T01:48:57;5.82;;;2.90;;
73382;SDS011;61600;48.126;11.542;2023-07-22T01:51:22;8.38;;;3.47;;
73382;SDS011;61600;48.126;11.542;2023-07-22T01:53:48;5.43;;;2.95;;
73382;SDS011;61600;48.126;11.542;2023-07-22T01:56:15;6.95;;;3.30;;
73382;SDS011;61600;48.126;11.542;2023-07-22T01:58:42;6.38;;;2.85;;
73382;SDS011;61600;48.126;11.542;2023-07-22T02:01:08;5.53;;;3.10;;
73382;SDS011;61600;48.126;11.542;2023-07-22T02:03:34;4.90;;;2.97;;
73382;SDS011;61600;48.126;11.542;2023-07-22T02:06:03;5.57;;;2.92;;
73382;SDS011;61600;48.126;11.542;2023-07-22T02:08:29;4.32;;;2.55;;
73382;SDS011;61600;48.126;11.542;2023-07-22T02:11:02;7.47;;;2.45;;
73382;SDS011;61600;48.126;11.542;2023-07-22T02:13:32;5.57;;;2.90;;
73382;SDS011;61600;48.126;11.542;2023-07-22T02:15:59;5.72;;;2.95;;
73382;SDS011;61600;48.126;11.542;2023-07-22T02:18:25;8.07;;;3.05;;
73382;SDS011;61600;48.126;11.542;2023-07-22T02:20:51;5.05;;;2.50;;
73382;SDS011;61600;48.126;11.542;2023-07-22T02:23:18;7.50;;;2.88;;
73382;SDS011;61600;48.126;11.542;2023-07-22T02:25:44;6.63;;;3.42;;
73382;SDS011;61600;48.126;11.542;2023-07-22T02:28:09;7.25;;;3.80;;
73382;SDS011;61600;48.126;11.542;2023-07-22T02:30:36;10.95;;;4.40;;
73382;SDS011;61600;48.126;11.542;2023-07-22T02:33:02;8.80;;;4.07;;
73382;SDS011;61600;48.126;11.542;2023-07-22T02:35:30;9.32;;;3.85;;
73382;SDS011;61600;48.126;11.542;2023-07-22T02:37:56;5.47;;;2.70;;
73382;SDS011;61600;48.126;11.542;2023-07-22T02:40:22;8.50;;;3.38;;
73382;SDS011;61600;48.126;11.542;2023-07-22T02:42:47;6.95;;;3.33;;
73382;SDS011;61600;48.126;11.542;2023-07-22T02:45:13;5.78;;;3.13;;
73382;SDS011;61600;48.126;11.542;2023-07-22T02:47:38;5.45;;;2.92;;
73382;SDS011;61600;48.126;11.542;2023-07-22T02:50:08;5.00;;;2.75;;
73382;SDS011;61600;48.126;11.542;2023-07-22T02:52:34;8.32;;;3.38;;
73382;SDS011;61600;48.126;11.542;2023-07-22T02:55:16;6.85;;;3.10;;
73382;SDS011;61600;48.126;11.542;2023-07-22T02:57:45;4.80;;;2.88;;
73382;SDS011;61600;48.126;11.542;2023-07-22T03:02:38;4.38;;;2.65;;
73382;SDS011;61600;48.126;11.542;2023-07-22T03:05:06;5.53;;;2.72;;
73382;SDS011;61600;48.126;11.542;2023-07-22T03:07:34;4.28;;;2.75;;
73382;SDS011;61600;48.126;11.542;2023-07-22T03:10:00;4.38;;;2.80;;
73382;SDS011;61600;48.126;11.542;2023-07-22T03:12:26;4.38;;;2.95;;
73382;SDS011;61600;48.126;11.542;2023-07-22T03:14:52;4.90;;;2.90;;
73382;SDS011;61600;48.126;11.542;2023-07-22T03:17:18;6.57;;;2.60;;
73382;SDS011;61600;48.126;11.542;2023-07-22T03:19:44;6.43;;;2.75;;
73382;SDS011;61600;48.126;11.542;2023-07-22T03:22:11;7.05;;;3.05;;
73382;SDS011;61600;48.126;11.542;2023-07-22T03:24:39;5.03;;;3.10;;
73382;SDS011;61600;48.126;11.542;2023-07-22T03:27:05;7.03;;;3.00;;
73382;SDS011;61600;48.126;11.542;2023-07-22T03:29:31;6.18;;;3.00;;
73382;SDS011;61600;48.126;11.542;2023-07-22T03:31:57;7.70;;;2.90;;
73382;SDS011;61600;48.126;11.542;2023-07-22T03:34:26;7.97;;;2.90;;
73382;SDS011;61600;48.126;11.542;2023-07-22T03:36:52;4.82;;;3.00;;
73382;SDS011;61600;48.126;11.542;2023-07-22T03:39:19;5.75;;;2.88;;
73382;SDS011;61600;48.126;11.542;2023-07-22T03:41:45;8.00;;;3.53;;
73382;SDS011;61600;48.126;11.542;2023-07-22T03:44:11;5.97;;;3.17;;
73382;SDS011;61600;48.126;11.542;2023-07-22T03:46:37;5.95;;;2.70;;
73382;SDS011;61600;48.126;11.542;2023-07-22T03:49:03;6.07;;;3.00;;
73382;SDS011;61600;48.126;11.542;2023-07-22T03:51:29;5.68;;;2.95;;
73382;SDS011;61600;48.126;11.542;2023-07-22T03:53:55;4.57;;;3.15;;
73382;SDS011;61600;48.126;11.542;2023-07-22T03:56:21;4.80;;;2.97;;
73382;SDS011;61600;48.126;11.542;2023-07-22T03:58:49;6.10;;;2.70;;
73382;SDS011;61600;48.126;11.542;2023-07-22T04:01:15;5.90;;;2.90;;
73382;SDS011;61600;48.126;11.542;2023-07-22T04:03:41;5.28;;;2.92;;
73382;SDS011;61600;48.126;11.542;2023-07-22T04:06:06;4.82;;;2.80;;
73382;SDS011;61600;48.126;11.542;2023-07-22T04:08:32;4.75;;;2.92;;
73382;SDS011;61600;48.126;11.542;2023-07-22T04:13:25;4.30;;;2.70;;
73382;SDS011;61600;48.126;11.542;2023-07-22T04:15:52;5.30;;;2.78;;
73382;SDS011;61600;48.126;11.542;2023-07-22T04:18:18;4.85;;;2.65;;
73382;SDS011;61600;48.126;11.542;2023-07-22T04:20:45;5.68;;;2.58;;
73382;SDS011;61600;48.126;11.542;2023-07-22T04:23:13;5.75;;;2.83;;
73382;SDS011;61600;48.126;11.542;2023-07-22T04:25:40;7.13;;;3.47;;
73382;SDS011;61600;48.126;11.542;2023-07-22T04:28:06;4.95;;;2.92;;
73382;SDS011;61600;48.126;11.542;2023-07-22T04:30:33;5.18;;;3.03;;
73382;SDS011;61600;48.126;11.542;2023-07-22T04:32:59;4.90;;;2.78;;
73382;SDS011;61600;48.126;11.542;2023-07-22T04:35:24;4.75;;;2.72;;
73382;SDS011;61600;48.126;11.542;2023-07-22T04:37:50;6.25;;;2.72;;
73382;SDS011;61600;48.126;11.542;2023-07-22T04:40:16;5.13;;;2.70;;
73382;SDS011;61600;48.126;11.542;2023-07-22T04:42:43;5.22;;;2.88;;
73382;SDS011;61600;48.126;11.542;2023-07-22T04:47:36;5.43;;;2.38;;
73382;SDS011;61600;48.126;11.542;2023-07-22T04:50:04;4.47;;;2.78;;
73382;SDS011;61600;48.126;11.542;2023-07-22T04:52:34;4.22;;;2.33;;
73382;SDS011;61600;48.126;11.542;2023-07-22T04:55:01;4.78;;;2.95;;
73382;SDS011;61600;48.126;11.542;2023-07-22T04:57:40;6.15;;;3.00;;
73382;SDS011;61600;48.126;11.542;2023-07-22T05:00:12;7.72;;;3.03;;
73382;SDS011;61600;48.126;11.542;2023-07-22T05:02:45;7.40;;;2.90;;
73382;SDS011;61600;48.126;11.542;2023-07-22T05:05:12;4.45;;;2.50;;
73382;SDS011;61600;48.126;11.542;2023-07-22T05:07:39;5.53;;;2.63;;
73382;SDS011;61600;48.126;11.542;2023-07-22T05:10:06;4.70;;;2.70;;
73382;SDS011;61600;48.126;11.542;2023-07-22T05:12:40;5.60;;;2.75;;
73382;SDS011;61600;48.126;11.542;2023-07-22T05:15:07;3.85;;;2.17;;
73382;SDS011;61600;48.126;11.542;2023-07-22T05:17:35;4.22;;;2.40;;
73382;SDS011;61600;48.126;11.542;2023-07-22T05:20:00;3.97;;;2.45;;
73382;SDS011;61600;48.126;11.542;2023-07-22T05:22:26;4.07;;;2.40;;
73382;SDS011;61600;48.126;11.542;2023-07-22T05:24:52;5.90;;;2.75;;
73382;SDS011;61600;48.126;11.542;2023-07-22T05:27:18;4.65;;;2.13;;
73382;SDS011;61600;48.126;11.542;2023-07-22T05:29:43;8.38;;;2.63;;
73382;SDS011;61600;48.126;11.542;2023-07-22T05:32:10;5.00;;;2.40;;
73382;SDS011;61600;48.126;11.542;2023-07-22T05:34:36;4.25;;;2.35;;
73382;SDS011;61600;48.126;11.542;2023-07-22T05:37:03;5.70;;;3.13;;
73382;SDS011;61600;48.126;11.542;2023-07-22T05:39:29;7.82;;;2.80;;
73382;SDS011;61600;48.126;11.542;2023-07-22T05:41:54;4.07;;;2.63;;
73382;SDS011;61600;48.126;11.542;2023-07-22T05:44:21;5.20;;;2.20;;
73382;SDS011;61600;48.126;11.542;2023-07-22T05:46:46;3.58;;;1.92;;
73382;SDS011;61600;48.126;11.542;2023-07-22T05:49:12;5.72;;;2.33;;
73382;SDS011;61600;48.126;11.542;2023-07-22T05:51:38;4.35;;;2.20;;
73382;SDS011;61600;48.126;11.542;2023-07-22T05:54:04;5.45;;;2.03;;
73382;SDS011;61600;48.126;11.542;2023-07-22T05:56:30;3.50;;;2.10;;
73382;SDS011;61600;48.126;11.542;2023-07-22T06:01:23;4.82;;;2.45;;
73382;SDS011;61600;48.126;11.542;2023-07-22T06:03:49;4.30;;;2.35;;
73382;SDS011;61600;48.126;11.542;2023-07-22T06:06:15;5.55;;;2.45;;
73382;SDS011;61600;48.126;11.542;2023-07-22T06:08:41;4.25;;;2.05;;
73382;SDS011;61600;48.126;11.542;2023-07-22T06:11:07;4.78;;;2.35;;
73382;SDS011;61600;48.126;11.542;2023-07-22T06:13:33;6.70;;;2.70;;
73382;SDS011;61600;48.126;11.542;2023-07-22T06:15:58;3.13;;;1.90;;
73382;SDS011;61600;48.126;11.542;2023-07-22T06:18:24;4.43;;;2.30;;
73382;SDS011;61600;48.126;11.542;2023-07-22T06:20:50;4.30;;;2.20;;
73382;SDS011;61600;48.126;11.542;2023-07-22T06:23:16;3.58;;;2.20;;
73382;SDS011;61600;48.126;11.542;2023-07-22T06:25:42;4.97;;;2.08;;
73382;SDS011;61600;48.126;11.542;2023-07-22T06:28:08;3.75;;;2.03;;
73382;SDS011;61600;48.126;11.542;2023-07-22T06:30:33;4.63;;;2.17;;
73382;SDS011;61600;48.126;11.542;2023-07-22T06:32:59;4.13;;;2.28;;
73382;SDS011;61600;48.126;11.542;2023-07-22T06:35:24;5.28;;;2.30;;
73382;SDS011;61600;48.126;11.542;2023-07-22T06:37:50;4.63;;;2.38;;
73382;SDS011;61600;48.126;11.542;2023-07-22T06:40:16;4.65;;;1.90;;
73382;SDS011;61600;48.126;11.542;2023-07-22T06:42:42;3.55;;;1.80;;
73382;SDS011;61600;48.126;11.542;2023-07-22T06:45:08;4.18;;;2.35;;
73382;SDS011;61600;48.126;11.542;2023-07-22T06:47:34;5.32;;;2.20;;
73382;SDS011;61600;48.126;11.542;2023-07-22T06:50:02;6.63;;;2.08;;
73382;SDS011;61600;48.126;11.542;2023-07-22T06:52:30;3.63;;;2.08;;
73382;SDS011;61600;48.126;11.542;2023-07-22T06:54:56;3.90;;;2.08;;
73382;SDS011;61600;48.126;11.542;2023-07-22T06:57:22;3.80;;;1.77;;
73382;SDS011;61600;48.126;11.542;2023-07-22T06:59:48;3.55;;;1.88;;
73382;SDS011;61600;48.126;11.542;2023-07-22T07:02:16;5.05;;;1.98;;
73382;SDS011;61600;48.126;11.542;2023-07-22T07:04:42;3.10;;;2.03;;
73382;SDS011;61600;48.126;11.542;2023-07-22T07:07:08;3.38;;;1.85;;
73382;SDS011;61600;48.126;11.542;2023-07-22T07:09:34;3.53;;;1.88;;
73382;SDS011;61600;48.126;11.542;2023-07-22T07:12:00;3.55;;;1.80;;
73382;SDS011;61600;48.126;11.542;2023-07-22T07:14:26;3.70;;;1.88;;
73382;SDS011;61600;48.126;11.542;2023-07-22T07:16:52;3.22;;;1.58;;
73382;SDS011;61600;48.126;11.542;2023-07-22T07:19:18;5.22;;;1.95;;
73382;SDS011;61600;48.126;11.542;2023-07-22T07:21:44;3.30;;;1.80;;
73382;SDS011;61600;48.126;11.542;2023-07-22T07:24:09;4.18;;;1.75;;
73382;SDS011;61600;48.126;11.542;2023-07-22T07:26:35;3.17;;;1.77;;
73382;SDS011;61600;48.126;11.542;2023-07-22T07:29:01;4.28;;;2.20;;
73382;SDS011;61600;48.126;11.542;2023-07-22T07:31:27;3.92;;;1.77;;
73382;SDS011;61600;48.126;11.542;2023-07-22T07:33:53;2.95;;;1.52;;
73382;SDS011;61600;48.126;11.542;2023-07-22T07:36:18;4.40;;;1.67;;
73382;SDS011;61600;48.126;11.542;2023-07-22T07:38:44;5.18;;;1.52;;
73382;SDS011;61600;48.126;11.542;2023-07-22T07:41:10;3.95;;;1.60;;
73382;SDS011;61600;48.126;11.542;2023-07-22T07:43:37;2.92;;;1.50;;
73382;SDS011;61600;48.126;11.542;2023-07-22T07:51:23;3.05;;;1.50;;
73382;SDS011;61600;48.126;11.542;2023-07-22T07:53:52;4.03;;;1.65;;
73382;SDS011;61600;48.126;11.542;2023-07-22T07:56:18;3.83;;;1.67;;
73382;SDS011;61600;48.126;11.542;2023-07-22T07:58:45;2.75;;;1.50;;
73382;SDS011;61600;48.126;11.542;2023-07-22T08:01:12;4.35;;;1.80;;
73382;SDS011;61600;48.126;11.542;2023-07-22T08:03:38;3.28;;;1.42;;
73382;SDS011;61600;48.126;11.542;2023-07-22T08:06:05;2.85;;;1.58;;
73382;SDS011;61600;48.126;11.542;2023-07-22T08:08:32;5.55;;;2.45;;
73382;SDS011;61600;48.126;11.542;2023-07-22T08:11:01;4.25;;;1.70;;
73382;SDS011;61600;48.126;11.542;2023-07-22T08:13:33;3.67;;;1.80;;
73382;SDS011;61600;48.126;11.542;2023-07-22T08:16:03;4.03;;;1.55;;
73382;SDS011;61600;48.126;11.542;2023-07-22T08:18:30;2.47;;;1.25;;
73382;SDS011;61600;48.126;11.542;2023-07-22T08:20:57;3.58;;;1.95;;
73382;SDS011;61600;48.126;11.542;2023-07-22T08:23:23;3.05;;;1.30;;
73382;SDS011;61600;48.126;11.542;2023-07-22T08:25:49;2.58;;;1.58;;
73382;SDS011;61600;48.126;11.542;2023-07-22T08:28:15;3.15;;;1.40;;
73382;SDS011;61600;48.126;11.542;2023-07-22T08:30:41;3.22;;;1.23;;
73382;SDS011;61600;48.126;11.542;2023-07-22T08:33:08;6.10;;;2.10;;
73382;SDS011;61600;48.126;11.542;2023-07-22T08:35:35;6.85;;;1.50;;
73382;SDS011;61600;48.126;11.542;2023-07-22T08:38:04;3.17;;;1.38;;
73382;SDS011;61600;48.126;11.542;2023-07-22T08:40:34;2.55;;;1.30;;
73382;SDS011;61600;48.126;11.542;2023-07-22T08:43:02;3.65;;;1.23;;
73382;SDS011;61600;48.126;11.542;2023-07-22T08:45:29;3.15;;;1.60;;
73382;SDS011;61600;48.126;11.542;2023-07-22T08:48:03;3.20;;;1.10;;
73382;SDS011;61600;48.126;11.542;2023-07-22T08:50:42;5.13;;;1.38;;
73382;SDS011;61600;48.126;11.542;2023-07-22T08:53:16;3.00;;;1.40;;
73382;SDS011;61600;48.126;11.542;2023-07-22T08:55:44;3.92;;;1.75;;
73382;SDS011;61600;48.126;11.542;2023-07-22T08:58:11;3.03;;;1.20;;
73382;SDS011;61600;48.126;11.542;2023-07-22T09:00:37;3.55;;;1.50;;
73382;SDS011;61600;48.126;11.542;2023-07-22T09:03:04;1.60;;;1.02;;
73382;SDS011;61600;48.126;11.542;2023-07-22T09:05:31;1.95;;;1.13;;
73382;SDS011;61600;48.126;11.542;2023-07-22T09:07:58;9.05;;;1.23;;
73382;SDS011;61600;48.126;11.542;2023-07-22T09:10:27;3.80;;;1.80;;
73382;SDS011;61600;48.126;11.542;2023-07-22T09:12:54;2.38;;;1.20;;
73382;SDS011;61600;48.126;11.542;2023-07-22T09:15:20;4.57;;;1.48;;
73382;SDS011;61600;48.126;11.542;2023-07-22T09:17:46;3.10;;;1.20;;
73382;SDS011;61600;48.126;11.542;2023-07-22T09:20:13;3.15;;;1.38;;
73382;SDS011;61600;48.126;11.542;2023-07-22T09:22:45;2.85;;;1.23;;
73382;SDS011;61600;48.126;11.542;2023-07-22T09:27:55;4.72;;;1.20;;
73382;SDS011;61600;48.126;11.542;2023-07-22T09:30:33;2.45;;;1.33;;
73382;SDS011;61600;48.126;11.542;2023-07-22T09:33:02;3.30;;;1.30;;
73382;SDS011;61600;48.126;11.542;2023-07-22T09:35:50;2.65;;;1.30;;
73382;SDS011;61600;48.126;11.542;2023-07-22T09:38:22;3.47;;;1.35;;
73382;SDS011;61600;48.126;11.542;2023-07-22T09:40:51;3.28;;;1.38;;
73382;SDS011;61600;48.126;11.542;2023-07-22T09:43:18;3.22;;;1.30;;
73382;SDS011;61600;48.126;11.542;2023-07-22T09:45:46;5.00;;;1.40;;
73382;SDS011;61600;48.126;11.542;2023-07-22T09:48:13;3.08;;;1.10;;
73382;SDS011;61600;48.126;11.542;2023-07-22T09:50:38;2.67;;;1.10;;
73382;SDS011;61600;48.126;11.542;2023-07-22T09:53:04;2.05;;;1.10;;
73382;SDS011;61600;48.126;11.542;2023-07-22T09:55:31;3.00;;;1.60;;
73382;SDS011;61600;48.126;11.542;2023-07-22T09:58:01;3.38;;;1.10;;
73382;SDS011;61600;48.126;11.542;2023-07-22T10:00:28;2.63;;;1.30;;
73382;SDS011;61600;48.126;11.542;2023-07-22T10:02:56;4.22;;;2.03;;
73382;SDS011;61600;48.126;11.542;2023-07-22T10:05:24;3.30;;;1.17;;
73382;SDS011;61600;48.126;11.542;2023-07-22T10:07:52;2.72;;;1.40;;
73382;SDS011;61600;48.126;11.542;2023-07-22T10:10:20;1.85;;;0.80;;
73382;SDS011;61600;48.126;11.542;2023-07-22T10:12:48;2.63;;;1.33;;
73382;SDS011;61600;48.126;11.542;2023-07-22T10:15:14;4.15;;;1.23;;
73382;SDS011;61600;48.126;11.542;2023-07-22T10:17:41;2.83;;;1.45;;
73382;SDS011;61600;48.126;11.542;2023-07-22T10:20:08;3.33;;;1.00;;
73382;SDS011;61600;48.126;11.542;2023-07-22T10:22:43;3.63;;;1.52;;
73382;SDS011;61600;48.126;11.542;2023-07-22T10:25:20;3.10;;;1.10;;
73382;SDS011;61600;48.126;11.542;2023-07-22T10:27:49;3.47;;;1.30;;
73382;SDS011;61600;48.126;11.542;2023-07-22T10:30:17;4.57;;;1.15;;
73382;SDS011;61600;48.126;11.542;2023-07-22T10:32:47;2.45;;;1.30;;
73382;SDS011;61600;48.126;11.542;2023-07-22T10:35:21;3.00;;;1.10;;
73382;SDS011;61600;48.126;11.542;2023-07-22T10:38:15;4.00;;;1.30;;
73382;SDS011;61600;48.126;11.542;2023-07-22T10:40:51;2.00;;;1.10;;
73382;SDS011;61600;48.126;11.542;2023-07-22T10:43:32;2.10;;;1.20;;
73382;SDS011;61600;48.126;11.542;2023-07-22T10:46:14;2.83;;;1.10;;
73382;SDS011;61600;48.126;11.542;2023-07-22T10:48:40;2.85;;;1.08;;
73382;SDS011;61600;48.126;11.542;2023-07-22T10:51:12;2.88;;;1.23;;
73382;SDS011;61600;48.126;11.542;2023-07-22T10:53:49;2.78;;;1.33;;
73382;SDS011;61600;48.126;11.542;2023-07-22T10:56:18;2.00;;;1.00;;
73382;SDS011;61600;48.126;11.542;2023-07-22T11:06:59;2.63;;;1.13;;
73382;SDS011;61600;48.126;11.542;2023-07-22T11:11:55;2.17;;;1.25;;
73382;SDS011;61600;48.126;11.542;2023-07-22T11:14:26;3.50;;;1.30;;
73382;SDS011;61600;48.126;11.542;2023-07-22T11:16:53;2.63;;;1.23;;
73382;SDS011;61600;48.126;11.542;2023-07-22T11:19:21;2.45;;;1.35;;
73382;SDS011;61600;48.126;11.542;2023-07-22T11:21:49;1.77;;;1.08;;
73382;SDS011;61600;48.126;11.542;2023-07-22T11:24:16;3.75;;;1.20;;
73382;SDS011;61600;48.126;11.542;2023-07-22T11:26:43;2.88;;;1.20;;
73382;SDS011;61600;48.126;11.542;2023-07-22T11:29:10;2.33;;;1.20;;
73382;SDS011;61600;48.126;11.542;2023-07-22T11:31:37;4.65;;;1.27;;
73382;SDS011;61600;48.126;11.542;2023-07-22T11:34:11;3.15;;;1.25;;
73382;SDS011;61600;48.126;11.542;2023-07-22T11:36:39;3.72;;;1.05;;
73382;SDS011;61600;48.126;11.542;2023-07-22T11:39:06;3.30;;;1.40;;
73382;SDS011;61600;48.126;11.542;2023-07-22T11:41:34;4.15;;;2.33;;
73382;SDS011;61600;48.126;11.542;2023-07-22T11:44:00;2.08;;;1.10;;
73382;SDS011;61600;48.126;11.542;2023-07-22T11:46:28;3.00;;;1.40;;
73382;SDS011;61600;48.126;11.542;2023-07-22T11:48:56;4.97;;;2.58;;
73382;SDS011;61600;48.126;11.542;2023-07-22T11:51:23;2.75;;;1.50;;
73382;SDS011;61600;48.126;11.542;2023-07-22T11:53:53;2.47;;;1.23;;
73382;SDS011;61600;48.126;11.542;2023-07-22T11:56:20;6.95;;;1.35;;
73382;SDS011;61600;48.126;11.542;2023-07-22T11:58:56;2.08;;;1.02;;
73382;SDS011;61600;48.126;11.542;2023-07-22T12:01:22;6.88;;;1.10;;
73382;SDS011;61600;48.126;11.542;2023-07-22T12:03:50;2.65;;;1.40;;
73382;SDS011;61600;48.126;11.542;2023-07-22T12:06:21;3.10;;;1.35;;
73382;SDS011;61600;48.126;11.542;2023-07-22T12:08:51;3.30;;;1.45;;
73382;SDS011;61600;48.126;11.542;2023-07-22T12:11:20;3.15;;;1.25;;
73382;SDS011;61600;48.126;11.542;2023-07-22T12:13:56;2.13;;;1.30;;
73382;SDS011;61600;48.126;11.542;2023-07-22T12:16:34;2.50;;;1.15;;
73382;SDS011;61600;48.126;11.542;2023-07-22T12:19:01;3.25;;;1.30;;
73382;SDS011;61600;48.126;11.542;2023-07-22T12:21:28;3.00;;;1.27;;
73382;SDS011;61600;48.126;11.542;2023-07-22T12:23:54;2.30;;;1.20;;
73382;SDS011;61600;48.126;11.542;2023-07-22T12:26:20;4.32;;;1.50;;
73382;SDS011;61600;48.126;11.542;2023-07-22T12:31:11;3.10;;;1.40;;
73382;SDS011;61600;48.126;11.542;2023-07-22T12:33:37;2.47;;;1.33;;
73382;SDS011;61600;48.126;11.542;2023-07-22T12:36:03;3.28;;;1.20;;
73382;SDS011;61600;48.126;11.542;2023-07-22T12:38:30;4.18;;;1.25;;
73382;SDS011;61600;48.126;11.542;2023-07-22T12:40:56;3.03;;;1.25;;
73382;SDS011;61600;48.126;11.542;2023-07-22T12:43:22;2.25;;;1.13;;
73382;SDS011;61600;48.126;11.542;2023-07-22T12:45:48;4.50;;;2.00;;
73382;SDS011;61600;48.126;11.542;2023-07-22T12:48:14;4.32;;;1.88;;
73382;SDS011;61600;48.126;11.542;2023-07-22T12:50:40;3.28;;;1.48;;
73382;SDS011;61600;48.126;11.542;2023-07-22T12:53:05;2.90;;;1.48;;
73382;SDS011;61600;48.126;11.542;2023-07-22T12:55:31;3.95;;;1.42;;
73382;SDS011;61600;48.126;11.542;2023-07-22T12:57:57;3.15;;;1.35;;
73382;SDS011;61600;48.126;11.542;2023-07-22T13:00:23;3.30;;;1.30;;
73382;SDS011;61600;48.126;11.542;2023-07-22T13:02:48;5.38;;;2.67;;
73382;SDS011;61600;48.126;11.542;2023-07-22T13:05:14;2.40;;;1.13;;
73382;SDS011;61600;48.126;11.542;2023-07-22T13:07:40;4.68;;;1.35;;
73382;SDS011;61600;48.126;11.542;2023-07-22T13:10:06;2.42;;;1.17;;
73382;SDS011;61600;48.126;11.542;2023-07-22T13:12:36;2.85;;;1.20;;
73382;SDS011;61600;48.126;11.542;2023-07-22T13:15:03;2.90;;;1.40;;
73382;SDS011;61600;48.126;11.542;2023-07-22T13:17:30;2.53;;;1.30;;
73382;SDS011;61600;48.126;11.542;2023-07-22T13:19:57;2.70;;;1.23;;
73382;SDS011;61600;48.126;11.542;2023-07-22T13:22:22;4.57;;;1.20;;
73382;SDS011;61600;48.126;11.542;2023-07-22T13:24:48;2.55;;;1.48;;
73382;SDS011;61600;48.126;11.542;2023-07-22T13:27:14;3.17;;;1.50;;
73382;SDS011;61600;48.126;11.542;2023-07-22T13:29:40;2.95;;;1.60;;
73382;SDS011;61600;48.126;11.542;2023-07-22T13:32:06;2.97;;;1.50;;
73382;SDS011;61600;48.126;11.542;2023-07-22T13:36:57;4.65;;;2.50;;
73382;SDS011;61600;48.126;11.542;2023-07-22T13:39:23;2.47;;;1.20;;
73382;SDS011;61600;48.126;11.542;2023-07-22T13:41:49;3.75;;;1.52;;
73382;SDS011;61600;48.126;11.542;2023-07-22T13:44:15;2.20;;;1.20;;
73382;SDS011;61600;48.126;11.542;2023-07-22T13:46:42;2.55;;;1.60;;
73382;SDS011;61600;48.126;11.542;2023-07-22T13:49:07;3.85;;;1.55;;
73382;SDS011;61600;48.126;11.542;2023-07-22T13:53:59;2.88;;;1.63;;
73382;SDS011;61600;48.126;11.542;2023-07-22T13:56:25;2.85;;;1.67;;
73382;SDS011;61600;48.126;11.542;2023-07-22T13:58:51;4.47;;;1.63;;
73382;SDS011;61600;48.126;11.542;2023-07-22T14:01:17;3.63;;;1.35;;
73382;SDS011;61600;48.126;11.542;2023-07-22T14:03:48;3.33;;;1.60;;
73382;SDS011;61600;48.126;11.542;2023-07-22T14:06:14;2.88;;;1.80;;
73382;SDS011;61600;48.126;11.542;2023-07-22T14:08:39;2.72;;;1.52;;
73382;SDS011;61600;48.126;11.542;2023-07-22T14:11:05;2.85;;;1.48;;
73382;SDS011;61600;48.126;11.542;2023-07-22T14:13:31;3.00;;;1.20;;
73382;SDS011;61600;48.126;11.542;2023-07-22T14:18:23;3.35;;;1.60;;
73382;SDS011;61600;48.126;11.542;2023-07-22T14:20:50;3.05;;;1.40;;
73382;SDS011;61600;48.126;11.542;2023-07-22T14:25:41;2.10;;;1.15;;
73382;SDS011;61600;48.126;11.542;2023-07-22T14:28:07;2.38;;;1.30;;
73382;SDS011;61600;48.126;11.542;2023-07-22T14:30:32;2.60;;;1.40;;
73382;SDS011;61600;48.126;11.542;2023-07-22T14:35:24;2.42;;;1.35;;
73382;SDS011;61600;48.126;11.542;2023-07-22T14:40:17;3.50;;;1.80;;
73382;SDS011;61600;48.126;11.542;2023-07-22T14:45:08;3.00;;;1.45;;
73382;SDS011;61600;48.126;11.542;2023-07-22T14:47:34;2.90;;;1.52;;
73382;SDS011;61600;48.126;11.542;2023-07-22T14:52:26;7.50;;;1.77;;
73382;SDS011;61600;48.126;11.542;2023-07-22T14:57:17;3.72;;;1.40;;
73382;SDS011;61600;48.126;11.542;2023-07-22T14:59:48;2.30;;;1.40;;
73382;SDS011;61600;48.126;11.542;2023-07-22T15:02:14;8.70;;;1.80;;
73382;SDS011;61600;48.126;11.542;2023-07-22T15:04:40;3.20;;;1.67;;
73382;SDS011;61600;48.126;11.542;2023-07-22T15:07:05;4.53;;;2.00;;
73382;SDS011;61600;48.126;11.542;2023-07-22T15:09:31;2.63;;;1.40;;
73382;SDS011;61600;48.126;11.542;2023-07-22T15:11:57;3.65;;;1.50;;
73382;SDS011;61600;48.126;11.542;2023-07-22T15:14:23;4.32;;;2.05;;
73382;SDS011;61600;48.126;11.542;2023-07-22T15:16:48;3.05;;;1.77;;
73382;SDS011;61600;48.126;11.542;2023-07-22T15:19:14;3.00;;;1.55;;
73382;SDS011;61600;48.126;11.542;2023-07-22T15:21:40;2.58;;;1.45;;
73382;SDS011;61600;48.126;11.542;2023-07-22T15:26:32;3.85;;;1.92;;
73382;SDS011;61600;48.126;11.542;2023-07-22T15:28:57;4.40;;;2.00;;
73382;SDS011;61600;48.126;11.542;2023-07-22T15:31:23;3.33;;;1.88;;
73382;SDS011;61600;48.126;11.542;2023-07-22T15:33:49;3.58;;;1.52;;